• Join FlightAware (Why Join?)
  • Login
  • US Flag 
04:01AM EST


 

Airport Tracker/Info


-or-


 

Live Flight TrackerFlight Track Log ✈ DAL470 ✈ 30-Apr-2013 ✈ KLAS - KMEM

Flight Track Log - Related Links

Times and Time Zones

All times are in EDT time to prevent confusion due to time zone crossing. See the DAL470 flight status page for this flight to view local times or setup timezone preferences in your user account.

Time Position Orientation Groundspeed Altitude Reporting Facility
EDT Latitude Longitude Course Direction KTS MPH feet Rate Location/Type
04:37PM 36.0767 -115.1814 96° East 182 209 3,100  Level Los Angeles Center
04:38PM 36.0744 -115.2406 267° West 227 261 4,400 1,980 Climbing Los Angeles Center
04:39PM 36.0958 -115.2836 302° West 248 285 6,300 2,760 Climbing Los Angeles Center
04:40PM 36.1834 -115.0450 90° East  Level FlightAware Approximate
04:40PM 36.1717 -115.2578 15° North 266 306 9,500  Level Los Angeles Center
04:41PM 36.1836 -114.8812 80° East  Level FlightAware Approximate
04:41PM 36.1981 -115.1575 72° East 302 348 10,700  Level Los Angeles Center
04:42PM 36.1961 -114.7193 96° East  Level FlightAware Approximate
04:42PM 36.1978 -115.0314 90° East 358 412 13,500  Level Los Angeles Center
04:43PM 36.1835 -114.5688 96° East  Level FlightAware Approximate
04:43PM 36.1986 -114.9014 90° East 374 430 15,900  Level Los Angeles Center
04:44PM 36.2003 -114.7594 89° East 406 467 17,100 1,680 Climbing Los Angeles Center
04:45PM 36.1975 -114.6036 91° East 447 514 19,500 2,220 Climbing Los Angeles Center
04:46PM 36.1958 -114.4111 91° East 463 533 21,800 1,980 Climbing Los Angeles Center
04:47PM 36.1936 -114.2461 91° East 474 545 23,600 1,500 Climbing Los Angeles Center
04:48PM 36.2119 -114.0789 82° East 483 556 25,000 1,140 Climbing Los Angeles Center
04:49PM 36.2344 -113.9108 81° East 493 567 26,000 1,020 Climbing Los Angeles Center
04:50PM 36.2683 -113.7411 76° East 502 578 27,200 1,380 Climbing Los Angeles Center
04:51PM 36.3014 -113.5681 77° East 511 588 28,900 1,740 Climbing Los Angeles Center
04:52PM 36.3353 -113.3656 78° East 505 581 30,900 960 Climbing Los Angeles Center
04:53PM 36.3642 -113.1981 78° East 502 578 31,000 660 Climbing Los Angeles Center
04:54PM 36.3961 -113.0319 77° East 499 574 32,300 1,140 Climbing Los Angeles Center
04:55PM 36.4267 -112.8664 77° East 496 571 33,400 1,020 Climbing Los Angeles Center
04:56PM 36.4561 -112.6986 78° East 498 573 34,500 1,200 Climbing Los Angeles Center
04:57PM 36.4914 -112.4992 78° East 495 570 35,900 1,080 Climbing Los Angeles Center
04:59PM 36.5194 -112.3350 78° East 491 565 36,800 480 Climbing Los Angeles Center
05:00PM 36.5486 -112.1708 77° East 488 562 37,000 60 Climbing Los Angeles Center
05:01PM 36.5764 -112.0067 78° East 488 562 37,000  Level Los Angeles Center
05:02PM 36.6039 -111.8419 78° East 489 563 37,000  Level Los Angeles Center
05:02PM 36.6197 -111.7442 79° East 490 564 37,000  Level Denver Center
05:03PM 36.6528 -111.5436 78° East 494 568 37,000  Level Denver Center
05:04PM 36.6786 -111.3783 79° East 491 565 37,000  Level Denver Center
05:05PM 36.7072 -111.2103 78° East 495 570 37,000  Level Denver Center
05:06PM 36.7350 -111.0428 78° East 495 570 37,000  Level Denver Center
05:07PM 36.7611 -110.8761 79° East 493 567 37,000  Level Denver Center
05:08PM 36.7881 -110.7075 79° East 497 572 37,000  Level Denver Center
05:09PM 36.7897 -110.5358 89° East 503 579 37,000  Level Denver Center
05:10PM 36.7800 -110.3319 93° East 495 570 37,000  Level Denver Center
05:11PM 36.7708 -110.1597 94° East 498 573 37,000  Level Denver Center
05:12PM 36.7628 -109.9769 93° East 495 570 37,000  Level Denver Center
05:14PM 36.7569 -109.8111 92° East 499 574 37,000  Level Denver Center
05:15PM 36.7508 -109.6472 93° East 496 571 37,000  Level Denver Center
05:16PM 36.7506 -109.4544 90° East 494 568 37,000  Level Denver Center
05:17PM 36.7572 -109.2900 87° East 493 567 37,000  Level Denver Center
05:18PM 36.7639 -109.0981 87° East 496 571 37,000  Level Denver Center
05:19PM 36.7689 -108.9356 88° East 491 565 37,000  Level Denver Center
05:20PM 36.7731 -108.7711 88° East 492 566 37,000  Level Denver Center
05:21PM 36.7783 -108.5814 88° East 489 563 37,000  Level Denver Center
05:22PM 36.7808 -108.4158 89° East 494 568 37,000  Level Denver Center
05:23PM 36.7856 -108.2250 88° East 491 565 37,000  Level Denver Center
05:24PM 36.7886 -108.0597 89° East 495 570 37,000  Level Denver Center
05:25PM 36.7931 -107.8442 88° East 488 562 37,000  Level Denver Center
05:26PM 36.7953 -107.6800 89° East 492 566 37,000  Level Denver Center
05:27PM 36.7983 -107.4906 89° East 488 562 37,000  Level Denver Center
05:28PM 36.8011 -107.3294 89° East 484 557 37,000  Level Denver Center
05:29PM 36.8025 -107.1433 89° East 480 552 37,000  Level Denver Center
05:30PM 36.8044 -106.9836 89° East 479 551 37,000  Level Denver Center
05:31PM 36.8075 -106.7992 89° East 478 550 37,000  Level Denver Center
05:32PM 36.8100 -106.6411 89° East 475 547 37,000  Level Denver Center
05:33PM 36.8103 -106.4822 90° East 478 550 37,000  Level Denver Center
05:34PM 36.8117 -106.2975 89° East 476 548 37,000  Level Denver Center
05:35PM 36.8133 -106.1158 89° East 478 550 37,000  Level Denver Center
05:36PM 36.8128 -105.9558 90° East 481 554 37,000  Level Denver Center
05:37PM 36.8133 -105.7983 90° East 477 549 37,000  Level Denver Center
05:38PM 36.8139 -105.6172 90° East 470 541 37,000  Level Denver Center
05:40PM 36.8133 -105.4864 90° East 471 542 37,000  Level Denver Center
05:40PM 36.8122 -105.3289 90° East 473 544 37,000  Level Albuquerque Center
05:41PM 36.8106 -105.1494 91° East 465 535 37,000  Level Albuquerque Center
05:42PM 36.8097 -104.9964 90° East 463 533 37,000 -300 Level Albuquerque Center
05:43PM 36.8097 -104.8261 90° East 446 513 36,500 -780 Descending Albuquerque Center
05:44PM 36.8075 -104.6753 91° East 453 521 35,500 -780 Descending Albuquerque Center
05:45PM 36.8056 -104.5022 91° East 449 517 35,000 -300 Descending Albuquerque Center
05:47PM 36.8044 -104.3550 90° East 446 513 35,000  Level Albuquerque Center
05:48PM 36.8028 -104.1844 91° East 445 512 35,000  Level Albuquerque Center
05:49PM 36.8003 -104.0372 91° East 445 512 35,000  Level Albuquerque Center
05:50PM 36.7978 -103.8625 91° East 450 518 35,000  Level Albuquerque Center
05:51PM 36.7956 -103.7114 91° East 454 522 35,000  Level Albuquerque Center
05:52PM 36.7919 -103.5403 91° East 449 517 35,000  Level Albuquerque Center
05:53PM 36.7897 -103.3942 91° East 444 511 35,000  Level Albuquerque Center
05:54PM 36.7858 -103.2214 92° East 446 513 35,000  Level Albuquerque Center
05:55PM 36.7825 -103.0753 92° East 444 511 35,000  Level Albuquerque Center
05:56PM 36.7797 -102.9247 91° East 450 518 35,000  Level Albuquerque Center
05:57PM 36.7756 -102.7461 92° East 460 529 35,000  Level Albuquerque Center
05:58PM 36.7708 -102.5950 92° East 458 527 35,000  Level Albuquerque Center
05:59PM 36.7661 -102.4019 92° East 466 536 35,000  Level Albuquerque Center
06:00PM 36.7617 -102.2422 92° East 464 534 35,000  Level Albuquerque Center
06:01PM 36.7567 -102.0783 92° East 466 536 35,000  Level Albuquerque Center
06:02PM 36.7506 -101.9258 93° East 464 534 35,000  Level Albuquerque Center
06:03PM 36.7458 -101.7469 92° East 465 535 35,000  Level Albuquerque Center
06:04PM 36.7408 -101.5928 92° East 465 535 35,000  Level Albuquerque Center
06:05PM 36.7336 -101.4119 93° East 468 539 35,000  Level Albuquerque Center
06:06PM 36.7281 -101.2581 93° East 466 536 35,000  Level Kansas City Center
06:07PM 36.7214 -101.0772 93° East 468 539 35,000  Level Kansas City Center
06:08PM 36.7153 -100.9222 93° East 469 540 35,000  Level Kansas City Center
06:09PM 36.7075 -100.7431 93° East 466 536 35,000  Level Kansas City Center
06:10PM 36.7014 -100.5900 93° East 465 535 35,000  Level Kansas City Center
06:11PM 36.6942 -100.4108 93° East 465 535 35,000  Level Kansas City Center
06:12PM 36.6861 -100.2561 94° East 464 534 35,000  Level Kansas City Center
06:13PM 36.6789 -100.0942 93° East 465 535 35,000  Level Kansas City Center
06:14PM 36.6711 -99.9331 93° East 465 535 35,000  Level Kansas City Center
06:15PM 36.6631 -99.7717 94° East 465 535 35,000  Level Kansas City Center
06:16PM 36.6544 -99.6125 94° East 461 531 35,000  Level Kansas City Center
06:18PM 36.6456 -99.4225 93° East 455 524 35,000  Level Kansas City Center
06:19PM 36.6364 -99.2644 94° East 455 524 35,000 60 Level Kansas City Center
06:20PM 36.6283 -99.1061 94° East 455 524 35,200 720 Climbing Kansas City Center
06:21PM 36.6194 -98.9464 94° East 457 526 36,500 840 Climbing Kansas City Center
06:22PM 36.6100 -98.7906 94° East 452 520 37,000 240 Climbing Kansas City Center
06:23PM 36.6014 -98.6378 94° East 444 511 37,000  Level Kansas City Center
06:24PM 36.5922 -98.4850 94° East 442 509 37,000  Level Kansas City Center
06:25PM 36.5831 -98.3317 94° East 442 509 37,000  Level Kansas City Center
06:26PM 36.5719 -98.1489 94° East 441 507 37,000  Level Kansas City Center
06:27PM 36.5619 -97.9975 95° East 440 506 37,000  Level Kansas City Center
06:28PM 36.5517 -97.8453 95° East 440 506 37,000  Level Kansas City Center
06:29PM 36.5436 -97.7058 94° East 441 507 37,000  Level Kansas City Center
06:30PM 36.5306 -97.5242 95° East 439 505 37,000  Level Kansas City Center
06:31PM 36.5208 -97.3744 95° East 436 502 37,000  Level Kansas City Center
06:32PM 36.5100 -97.2258 95° East 434 499 37,000  Level Kansas City Center
06:33PM 36.5000 -97.0792 95° East 428 493 37,000  Level Kansas City Center
06:34PM 36.4883 -96.9317 96° East 428 493 37,000  Level Kansas City Center
06:35PM 36.4781 -96.7847 95° East 427 491 37,000  Level Kansas City Center
06:36PM 36.4658 -96.6286 96° East 428 493 37,000  Level Kansas City Center
06:37PM 36.4544 -96.4822 95° East 428 493 37,000  Level Kansas City Center
06:38PM 36.4414 -96.3058 95° East 427 491 37,000  Level Kansas City Center
06:39PM 36.4292 -96.1600 96° East 426 490 37,000  Level Kansas City Center
06:40PM 36.4169 -96.0133 96° East 426 490 37,000  Level Kansas City Center
06:41PM 36.4047 -95.8675 96° East 426 490 37,000  Level Kansas City Center
06:42PM 36.3933 -95.7292 96° East 428 493 37,000  Level Kansas City Center
06:43PM 36.3786 -95.5539 96° East 427 491 37,000  Level Kansas City Center
06:44PM 36.3664 -95.4058 96° East 430 495 37,000  Level Kansas City Center
06:45PM 36.3514 -95.2594 97° East 429 494 37,000  Level Kansas City Center
06:46PM 36.3383 -95.1139 96° East 426 490 37,000  Level Kansas City Center
06:47PM 36.3250 -94.9703 97° East 429 494 37,000  Level Kansas City Center
06:49PM 36.3083 -94.7944 97° East 429 494 37,000  Level Kansas City Center
06:50PM 36.2944 -94.6478 97° East 430 495 37,000  Level Kansas City Center
06:50PM 36.2892 -94.5872 96° East 430 495 37,000  Level Memphis Center
06:51PM 36.2753 -94.4372 97° East 430 495 37,000  Level Memphis Center
06:52PM 36.2594 -94.2872 97° East 425 489 37,000  Level Memphis Center
06:53PM 36.2431 -94.1372 98° East 431 496 37,000  Level Memphis Center
06:54PM 36.2206 -93.9869 100° East 431 496 37,000  Level Memphis Center
06:55PM 36.1933 -93.8417 103° East 431 496 37,000  Level Memphis Center
06:56PM 36.1706 -93.6892 100° East 431 496 37,000  Level Memphis Center
06:57PM 36.1453 -93.5389 102° East 426 490 37,000 -120 Level Memphis Center
06:58PM 36.1178 -93.3836 102° East 431 496 36,800 -660 Descending Memphis Center
06:59PM 36.0922 -93.2311 102° East 444 511 35,800 -900 Descending Memphis Center
07:00PM 36.0644 -93.0789 103° East 451 519 35,000 -420 Descending Memphis Center
07:01PM 36.0364 -92.9214 102° East 451 519 35,000  Level Memphis Center
07:02PM 36.0103 -92.7664 102° East 451 519 35,000  Level Memphis Center
07:03PM 35.9819 -92.6117 103° East 451 519 35,000 -60 Level Memphis Center
07:04PM 35.9514 -92.4544 103° East 451 519 34,900 -540 Descending Memphis Center
07:05PM 35.9247 -92.2975 102° East 456 525 34,000 -960 Descending Memphis Center
07:06PM 35.8936 -92.1378 103° East 456 525 33,000 -1,020 Descending Memphis Center
07:07PM 35.8644 -91.9836 103° East 461 531 32,000 -1,860 Descending Memphis Center
07:08PM 35.8350 -91.8294 103° East 461 531 29,300 -2,520 Descending Memphis Center
07:09PM 35.7992 -91.6906 108° East 444 511 27,100 -2,280 Descending Memphis Center
07:10PM 35.7567 -91.5722 114° Southeast 416 479 24,800 -2,400 Descending Memphis Center
07:11PM 35.7117 -91.4514 115° Southeast 392 451 22,300 -2,220 Descending Memphis Center
07:12PM 35.6711 -91.3408 114° Southeast 362 417 20,400 -1,920 Descending Memphis Center
07:13PM 35.6322 -91.2281 113° Southeast 356 410 18,500 -1,980 Descending Memphis Center
07:14PM 35.5892 -91.1231 117° Southeast 356 410 16,500 -1,920 Descending Memphis Center
07:15PM 35.5481 -91.0078 114° Southeast 341 392 14,700 -1,860 Descending Memphis Center
07:16PM 35.5089 -90.9053 115° Southeast 341 392 12,900 -1,800 Descending Memphis Center
07:17PM 35.4717 -90.8058 115° Southeast 328 377 11,100 -1,500 Descending Memphis Center
07:18PM 35.4325 -90.7086 116° Southeast 315 362 10,000 -600 Descending Memphis Center
07:19PM 35.4181 -90.6144 101° East 302 348 10,000 12,480 Level Memphis Center
07:20PM 35.4078 -90.5200 98° East 279 321 35,000 -1,380 Climbing Memphis Center
07:21PM 35.3953 -90.4361 100° East 260 299 7,300 -14,400 Descending Memphis Center
07:22PM 35.3828 -90.3544 101° East 249 287 6,000 -660 Descending Memphis Center
07:23PM 35.3767 -90.2858 96° East 241 277 6,000  Level Memphis Center
07:24PM 35.3994 -90.2094 70° East 229 264 6,000 -120 Level Memphis Center
07:25PM 35.4097 -90.1328 81° East 234 269 5,800 -540 Descending Memphis Center
07:26PM 35.3783 -90.0642 119° Southeast 218 251 5,000 -420 Descending Memphis Center
07:27PM 35.3406 -90.0108 131° Southeast 218 251 5,000  Level Memphis Center
07:27PM 35.3167 -90.0000 160° South 205 236 5,000 -420 Level KMEM
07:28PM 35.2667 -89.9833 165° South 211 243 4,500 -540 Descending KMEM